createdAt,value
2023-04-03T00:00:47.689Z,0.89
2023-04-03T00:01:47.712Z,0.86
2023-04-03T00:02:47.790Z,0.82
2023-04-03T00:03:47.758Z,0.82
2023-04-03T00:04:47.716Z,0.77
2023-04-03T00:05:47.739Z,0.74
2023-04-03T00:06:47.726Z,0.81
2023-04-03T00:07:47.734Z,0.77
2023-04-03T00:08:47.747Z,0.73
2023-04-03T00:09:47.749Z,0.77
2023-04-03T00:10:47.757Z,0.77
2023-04-03T00:11:47.763Z,0.71
2023-04-03T00:12:47.779Z,0.74
2023-04-03T00:13:47.786Z,0.77
2023-04-03T00:14:47.785Z,0.82
2023-04-03T00:15:47.794Z,0.77
2023-04-03T00:16:47.864Z,0.77
2023-04-03T00:17:47.827Z,0.77
2023-04-03T00:18:47.813Z,0.73
2023-04-03T00:19:47.831Z,0.78
2023-04-03T00:20:47.828Z,0.82
2023-04-03T00:21:47.839Z,0.71
2023-04-03T00:22:47.852Z,0.73
2023-04-03T00:23:47.851Z,0.78
2023-04-03T00:24:47.870Z,0.78
2023-04-03T00:25:47.871Z,0.73
2023-04-03T00:26:47.874Z,0.76
2023-04-03T00:27:47.877Z,0.81
2023-04-03T00:28:47.896Z,0.78
2023-04-03T00:29:47.895Z,0.74
2023-04-03T00:30:47.920Z,0.74
2023-04-03T00:31:47.910Z,0.68
2023-04-03T00:32:47.984Z,0.73
2023-04-03T00:33:47.925Z,0.70
2023-04-03T00:34:47.931Z,0.64
2023-04-03T00:35:47.985Z,0.74
2023-04-03T00:36:48.003Z,0.76
2023-04-03T00:37:47.951Z,0.70
2023-04-03T00:38:47.977Z,0.76
2023-04-03T00:39:47.967Z,0.64
2023-04-03T00:40:47.974Z,0.73
2023-04-03T00:41:47.985Z,0.61
2023-04-03T00:42:47.987Z,0.58
2023-04-03T00:43:48.006Z,0.59
2023-04-03T00:44:48.003Z,0.59
2023-04-03T00:45:48.010Z,0.67
2023-04-03T00:46:48.019Z,0.66
2023-04-03T00:47:48.037Z,0.63
2023-04-03T00:48:48.032Z,0.59
2023-04-03T00:49:48.038Z,0.66
2023-04-03T00:50:48.049Z,0.61
2023-04-03T00:51:48.053Z,0.66
2023-04-03T00:52:48.058Z,0.61
2023-04-03T00:53:48.066Z,0.59
2023-04-03T00:54:48.071Z,0.64
2023-04-03T00:55:48.078Z,0.59
2023-04-03T00:56:48.087Z,0.63
2023-04-03T00:57:48.102Z,0.58
2023-04-03T00:58:48.100Z,0.56
2023-04-03T00:59:48.108Z,0.61
2023-04-03T01:00:48.121Z,0.52
2023-04-03T01:01:48.171Z,0.56
2023-04-03T01:02:48.175Z,0.48
2023-04-03T01:03:48.153Z,0.51
2023-04-03T01:04:48.193Z,0.59
2023-04-03T01:05:48.176Z,0.52
2023-04-03T01:06:48.160Z,0.58
2023-04-03T01:07:48.172Z,0.48
2023-04-03T01:08:48.179Z,0.52
2023-04-03T01:09:48.183Z,0.48
2023-04-03T01:10:48.198Z,0.56
2023-04-03T01:11:48.207Z,0.51
2023-04-03T01:12:48.208Z,0.36
2023-04-03T01:13:48.211Z,0.42
2023-04-03T01:14:48.218Z,0.37
2023-04-03T01:15:48.262Z,0.37
2023-04-03T01:16:48.240Z,0.39
2023-04-03T01:17:48.281Z,0.37
2023-04-03T01:18:48.250Z,0.39
2023-04-03T01:19:48.255Z,0.37
2023-04-03T01:20:48.260Z,0.34
2023-04-03T01:21:48.269Z,0.33
2023-04-03T01:22:48.295Z,0.37
2023-04-03T01:23:48.286Z,0.36
2023-04-03T01:24:48.320Z,0.34
2023-04-03T01:25:48.299Z,0.29
2023-04-03T01:26:48.307Z,0.29
2023-04-03T01:27:48.313Z,0.29
2023-04-03T01:28:48.326Z,0.29
2023-04-03T01:29:48.330Z,0.27
2023-04-03T01:30:48.335Z,0.31
2023-04-03T01:31:48.393Z,0.27
2023-04-03T01:32:48.388Z,0.20
2023-04-03T01:33:48.363Z,0.24
2023-04-03T01:34:48.362Z,0.27
2023-04-03T01:35:48.394Z,0.18
2023-04-03T01:36:48.385Z,0.18
2023-04-03T01:37:48.384Z,0.15
2023-04-03T01:38:48.391Z,0.19
2023-04-03T01:39:48.403Z,0.24
2023-04-03T01:40:48.408Z,0.15
2023-04-03T01:41:48.416Z,0.24
2023-04-03T01:42:48.420Z,0.16
2023-04-03T01:43:48.427Z,0.16
2023-04-03T01:44:48.433Z,0.20
2023-04-03T01:45:48.471Z,0.20
2023-04-03T01:46:48.454Z,0.23
2023-04-03T01:47:48.456Z,0.18
2023-04-03T01:48:48.462Z,0.20
2023-04-03T01:49:48.468Z,0.15
2023-04-03T01:50:48.474Z,0.13
2023-04-03T01:51:48.482Z,0.16
2023-04-03T01:52:48.491Z,0.06
2023-04-03T01:53:48.502Z,0.05
2023-04-03T01:54:48.503Z,0.11
2023-04-03T01:55:48.511Z,0.02
2023-04-03T01:56:48.524Z,0.12
2023-04-03T01:57:48.525Z,0.06
2023-04-03T01:58:48.564Z,0.13
2023-04-03T01:59:48.540Z,0.08
2023-04-03T02:00:48.561Z,0.08
2023-04-03T02:01:48.567Z,0.08
2023-04-03T02:02:48.592Z,0.08
2023-04-03T02:03:48.586Z,0.08
2023-04-03T02:04:48.574Z,0.08
2023-04-03T02:05:48.581Z,0.01
2023-04-03T02:06:48.587Z,0.01
2023-04-03T02:07:48.599Z,0.09
2023-04-03T02:08:48.611Z,0.00
2023-04-03T02:09:48.643Z,-0.03
2023-04-03T02:10:48.621Z,0.02
2023-04-03T02:11:48.620Z,0.02
2023-04-03T02:12:48.648Z,-0.05
2023-04-03T02:13:48.637Z,0.00
2023-04-03T02:14:48.642Z,0.00
2023-04-03T02:15:48.656Z,-0.13
2023-04-03T02:16:48.709Z,-0.07
2023-04-03T02:17:48.740Z,-0.13
2023-04-03T02:18:48.680Z,0.00
2023-04-03T02:19:48.675Z,-0.09
2023-04-03T02:20:48.690Z,-0.09
2023-04-03T02:21:48.690Z,-0.05
2023-04-03T02:22:48.698Z,-0.09
2023-04-03T02:23:48.741Z,-0.15
2023-04-03T02:24:48.711Z,-0.07
2023-04-03T02:25:48.715Z,-0.05
2023-04-03T02:26:48.725Z,-0.07
2023-04-03T02:27:48.761Z,-0.18
2023-04-03T02:28:48.757Z,-0.06
2023-04-03T02:29:48.742Z,-0.15
2023-04-03T02:30:48.771Z,-0.18
2023-04-03T02:31:48.773Z,-0.24
2023-04-03T02:32:48.797Z,-0.17
2023-04-03T02:33:48.769Z,-0.15
2023-04-03T02:34:48.778Z,-0.13
2023-04-03T02:35:48.806Z,-0.20
2023-04-03T02:36:48.788Z,-0.30
2023-04-03T02:37:48.800Z,-0.21
2023-04-03T02:38:48.804Z,-0.26
2023-04-03T02:39:48.813Z,-0.23
2023-04-03T02:40:48.818Z,-0.27
2023-04-03T02:41:48.826Z,-0.26
2023-04-03T02:42:48.828Z,-0.30
2023-04-03T02:43:48.837Z,-0.26
2023-04-03T02:44:48.854Z,-0.26
2023-04-03T02:45:48.897Z,-0.26
2023-04-03T02:46:48.859Z,-0.28
2023-04-03T02:47:48.899Z,-0.28
2023-04-03T02:48:48.881Z,-0.27
2023-04-03T02:49:48.883Z,-0.27
2023-04-03T02:50:48.889Z,-0.20
2023-04-03T02:51:48.895Z,-0.26
2023-04-03T02:52:48.902Z,-0.31
2023-04-03T02:53:48.910Z,-0.30
2023-04-03T02:54:48.929Z,-0.23
2023-04-03T02:55:48.929Z,-0.30
2023-04-03T02:56:48.987Z,-0.27
2023-04-03T02:57:48.936Z,-0.13
2023-04-03T02:58:48.945Z,-0.30
2023-04-03T02:59:48.953Z,-0.30
2023-04-03T03:00:48.959Z,-0.24
2023-04-03T03:01:48.983Z,-0.26
2023-04-03T03:02:48.990Z,-0.30
2023-04-03T03:03:48.977Z,-0.28
2023-04-03T03:04:49.015Z,-0.26
2023-04-03T03:05:49.000Z,-0.28
2023-04-03T03:06:48.998Z,-0.27
2023-04-03T03:07:49.005Z,-0.26
2023-04-03T03:08:49.016Z,-0.17
2023-04-03T03:09:49.018Z,-0.15
2023-04-03T03:10:49.025Z,-0.13
2023-04-03T03:11:49.033Z,-0.23
2023-04-03T03:12:49.040Z,-0.13
2023-04-03T03:13:49.050Z,-0.28
2023-04-03T03:14:49.060Z,-0.24
2023-04-03T03:15:49.089Z,-0.26
2023-04-03T03:16:49.073Z,-0.24
2023-04-03T03:17:49.110Z,-0.33
2023-04-03T03:18:49.096Z,-0.24
2023-04-03T03:19:49.091Z,-0.31
2023-04-03T03:20:49.093Z,-0.28
2023-04-03T03:21:49.103Z,-0.30
2023-04-03T03:22:49.108Z,-0.26
2023-04-03T03:23:49.116Z,-0.30
2023-04-03T03:24:49.123Z,-0.36
2023-04-03T03:25:49.126Z,-0.26
2023-04-03T03:26:49.133Z,-0.39
2023-04-03T03:27:49.138Z,-0.30
2023-04-03T03:28:49.147Z,-0.24
2023-04-03T03:29:49.164Z,-0.35
2023-04-03T03:30:49.161Z,-0.31
2023-04-03T03:31:49.247Z,-0.42
2023-04-03T03:32:49.219Z,-0.31
2023-04-03T03:33:49.181Z,-0.31
2023-04-03T03:34:49.190Z,-0.33
2023-04-03T03:35:49.222Z,-0.38
2023-04-03T03:36:49.207Z,-0.46
2023-04-03T03:37:49.207Z,-0.31
2023-04-03T03:38:49.211Z,-0.44
2023-04-03T03:39:49.218Z,-0.42
2023-04-03T03:40:49.225Z,-0.33
2023-04-03T03:41:49.233Z,-0.36
2023-04-03T03:42:49.239Z,-0.39
2023-04-03T03:43:49.246Z,-0.45
2023-04-03T03:44:49.260Z,-0.44
2023-04-03T03:45:49.260Z,-0.42
2023-04-03T03:46:49.373Z,-0.42
2023-04-03T03:47:49.314Z,-0.42
2023-04-03T03:48:49.284Z,-0.48
2023-04-03T03:49:49.288Z,-0.46
2023-04-03T03:50:49.296Z,-0.46
2023-04-03T03:51:49.299Z,-0.48
2023-04-03T03:52:49.326Z,-0.56
2023-04-03T03:53:49.326Z,-0.59
2023-04-03T03:54:49.322Z,-0.53
2023-04-03T03:55:49.326Z,-0.60
2023-04-03T03:56:49.381Z,-0.59
2023-04-03T03:57:49.342Z,-0.60
2023-04-03T03:58:49.350Z,-0.57
2023-04-03T03:59:49.354Z,-0.57
2023-04-03T04:00:49.361Z,-0.66
2023-04-03T04:01:49.408Z,-0.66
2023-04-03T04:02:49.418Z,-0.64
2023-04-03T04:03:49.487Z,-0.63
2023-04-03T04:04:49.388Z,-0.70
2023-04-03T04:05:49.396Z,-0.63
2023-04-03T04:06:49.400Z,-0.67
2023-04-03T04:07:49.409Z,-0.72
2023-04-03T04:08:49.417Z,-0.67
2023-04-03T04:09:49.423Z,-0.67
2023-04-03T04:10:49.428Z,-0.70
2023-04-03T04:11:49.443Z,-0.74
2023-04-03T04:12:49.440Z,-0.74
2023-04-03T04:13:49.448Z,-0.75
2023-04-03T04:14:49.455Z,-0.77
2023-04-03T04:15:49.461Z,-0.66
2023-04-03T04:16:49.546Z,-0.72
2023-04-03T04:17:49.516Z,-0.77
2023-04-03T04:18:49.479Z,-0.77
2023-04-03T04:19:49.489Z,-0.82
2023-04-03T04:20:49.500Z,-0.75
2023-04-03T04:21:49.499Z,-0.75
2023-04-03T04:22:49.506Z,-0.75
2023-04-03T04:23:49.515Z,-0.77
2023-04-03T04:24:49.522Z,-0.84
2023-04-03T04:25:49.528Z,-0.84
2023-04-03T04:26:49.535Z,-0.84
2023-04-03T04:27:49.538Z,-0.81
2023-04-03T04:28:49.546Z,-0.82
2023-04-03T04:29:49.561Z,-0.91
2023-04-03T04:30:49.563Z,-0.82
2023-04-03T04:31:49.580Z,-0.94
2023-04-03T04:32:49.602Z,-0.93
2023-04-03T04:33:49.576Z,-0.89
2023-04-03T04:34:49.592Z,-0.85
2023-04-03T04:35:49.694Z,-0.81
2023-04-03T04:36:49.677Z,-0.91
2023-04-03T04:37:49.615Z,-0.82
2023-04-03T04:38:49.608Z,-0.94
2023-04-03T04:39:49.613Z,-0.89
2023-04-03T04:40:49.620Z,-0.87
2023-04-03T04:41:49.626Z,-0.93
2023-04-03T04:42:49.634Z,-0.87
2023-04-03T04:43:49.637Z,-0.91
2023-04-03T04:44:49.648Z,-0.91
2023-04-03T04:45:49.683Z,-0.89
2023-04-03T04:46:49.656Z,-0.93
2023-04-03T04:47:49.734Z,-0.99
2023-04-03T04:48:49.673Z,-0.89
2023-04-03T04:49:49.678Z,-0.96
2023-04-03T04:50:49.682Z,-0.97
2023-04-03T04:51:52.217Z,-1.00
2023-04-03T04:52:49.714Z,-0.96
2023-04-03T04:53:49.704Z,-0.99
2023-04-03T04:54:49.708Z,-0.93
2023-04-03T04:55:49.715Z,-0.96
2023-04-03T04:56:49.749Z,-0.91
2023-04-03T04:57:49.756Z,-0.91
2023-04-03T04:58:49.732Z,-0.96
2023-04-03T04:59:49.741Z,-0.85
2023-04-03T05:00:49.755Z,-0.96
2023-04-03T05:01:49.785Z,-0.97
2023-04-03T05:02:49.880Z,-0.93
2023-04-03T05:03:49.766Z,-0.91
2023-04-03T05:04:49.840Z,-0.97
2023-04-03T05:05:49.786Z,-0.94
2023-04-03T05:06:49.787Z,-0.87
2023-04-03T05:07:49.798Z,-0.91
2023-04-03T05:08:49.820Z,-0.87
2023-04-03T05:09:49.818Z,-0.87
2023-04-03T05:10:49.833Z,-0.85
2023-04-03T05:11:49.821Z,-0.94
2023-04-03T05:12:49.837Z,-0.87
2023-04-03T05:13:49.836Z,-0.91
2023-04-03T05:14:49.855Z,-0.97
2023-04-03T05:15:49.876Z,-0.87
2023-04-03T05:16:51.513Z,-0.87
2023-04-03T05:17:49.905Z,-0.91
2023-04-03T05:18:49.868Z,-0.85
2023-04-03T05:19:49.881Z,-0.85
2023-04-03T05:20:49.879Z,-0.84
2023-04-03T05:21:49.888Z,-0.80
2023-04-03T05:22:49.889Z,-0.69
2023-04-03T05:23:49.904Z,-0.75
2023-04-03T05:24:49.914Z,-0.66
2023-04-03T05:25:49.911Z,-0.63
2023-04-03T05:26:49.929Z,-0.62
2023-04-03T05:27:49.932Z,-0.54
2023-04-03T05:28:49.943Z,-0.66
2023-04-03T05:29:49.940Z,-0.53
2023-04-03T05:30:49.945Z,-0.56
2023-04-03T05:31:49.968Z,-0.41
2023-04-03T05:32:49.986Z,-0.44
2023-04-03T05:33:49.972Z,-0.44
2023-04-03T05:34:49.976Z,-0.45
2023-04-03T05:35:50.017Z,-0.36
2023-04-03T05:36:49.986Z,-0.35
2023-04-03T05:37:50.000Z,-0.33
2023-04-03T05:38:50.004Z,-0.36
2023-04-03T05:39:50.014Z,-0.27
2023-04-03T05:40:50.017Z,-0.28
2023-04-03T05:41:50.017Z,-0.26
2023-04-03T05:42:50.021Z,-0.33
2023-04-03T05:43:50.031Z,-0.18
2023-04-03T05:44:50.043Z,-0.20
2023-04-03T05:45:50.082Z,-0.13
2023-04-03T05:46:50.049Z,-0.12
2023-04-03T05:47:50.106Z,-0.10
2023-04-03T05:48:50.069Z,-0.13
2023-04-03T05:49:50.070Z,-0.06
2023-04-03T05:50:50.077Z,-0.05
2023-04-03T05:51:50.082Z,0.01
2023-04-03T05:52:50.100Z,0.01
2023-04-03T05:53:50.120Z,0.02
2023-04-03T05:54:50.110Z,0.06
2023-04-03T05:55:50.116Z,0.06
2023-04-03T05:56:50.132Z,0.11
2023-04-03T05:57:50.127Z,0.15
2023-04-03T05:58:50.137Z,0.15
2023-04-03T05:59:50.137Z,0.19
2023-04-03T06:00:50.159Z,0.18
2023-04-03T06:01:50.154Z,0.18
2023-04-03T06:02:50.328Z,0.23
2023-04-03T06:03:50.293Z,0.23
2023-04-03T06:04:50.485Z,0.24
2023-04-03T06:05:50.189Z,0.19
2023-04-03T06:06:50.189Z,0.29
2023-04-03T06:07:50.196Z,0.33
2023-04-03T06:08:50.204Z,0.20
2023-04-03T06:09:50.211Z,0.30
2023-04-03T06:10:50.216Z,0.30
2023-04-03T06:11:50.257Z,0.33
2023-04-03T06:12:50.365Z,0.36
2023-04-03T06:13:50.249Z,0.48
2023-04-03T06:14:50.252Z,0.45
2023-04-03T06:15:50.253Z,0.52
2023-04-03T06:16:50.297Z,0.52
2023-04-03T06:17:50.360Z,0.55
2023-04-03T06:18:50.279Z,0.51
2023-04-03T06:19:50.285Z,0.56
2023-04-03T06:20:50.297Z,0.58
2023-04-03T06:21:50.296Z,0.59
2023-04-03T06:22:50.301Z,0.63
2023-04-03T06:23:50.318Z,0.66
2023-04-03T06:24:50.322Z,0.70
2023-04-03T06:25:50.332Z,0.71
2023-04-03T06:26:50.336Z,0.81
2023-04-03T06:27:50.382Z,0.68
2023-04-03T06:28:50.348Z,0.77
2023-04-03T06:29:50.356Z,0.84
2023-04-03T06:30:50.396Z,0.85
2023-04-03T06:31:50.369Z,0.89
2023-04-03T06:32:50.398Z,0.89
2023-04-03T06:33:50.385Z,0.89
2023-04-03T06:34:50.392Z,0.85
2023-04-03T06:35:50.409Z,0.85
2023-04-03T06:36:50.407Z,0.89
2023-04-03T06:37:50.501Z,0.86
2023-04-03T06:38:50.433Z,0.94
2023-04-03T06:39:50.431Z,0.88
2023-04-03T06:40:50.486Z,1.00
2023-04-03T06:41:50.458Z,0.89
2023-04-03T06:42:50.455Z,0.94
2023-04-03T06:43:50.457Z,1.06
2023-04-03T06:44:50.473Z,1.03
2023-04-03T06:45:50.493Z,1.04
2023-04-03T06:46:50.480Z,1.04
2023-04-03T06:47:50.629Z,1.09
2023-04-03T06:48:50.509Z,1.07
2023-04-03T06:49:50.514Z,1.14
2023-04-03T06:50:50.513Z,1.03
2023-04-03T06:51:50.640Z,1.21
2023-04-03T06:52:50.538Z,1.20
2023-04-03T06:53:50.534Z,1.14
2023-04-03T06:54:50.540Z,1.13
2023-04-03T06:55:50.547Z,1.31
2023-04-03T06:56:50.584Z,1.28
2023-04-03T06:57:50.643Z,1.28
2023-04-03T06:58:50.571Z,1.31
2023-04-03T06:59:50.582Z,1.30
2023-04-03T07:00:50.586Z,1.34
2023-04-03T07:01:50.614Z,1.53
2023-04-03T07:02:50.637Z,1.71
2023-04-03T07:03:50.611Z,1.81
2023-04-03T07:04:50.661Z,2.01
2023-04-03T07:05:50.628Z,2.22
2023-04-03T07:06:50.888Z,2.36
2023-04-03T07:07:50.645Z,2.59
2023-04-03T07:08:50.651Z,2.73
2023-04-03T07:09:50.659Z,2.91
2023-04-03T07:10:50.667Z,3.01
2023-04-03T07:11:50.678Z,3.00
2023-04-03T07:12:50.688Z,2.98
2023-04-03T07:13:50.705Z,3.06
2023-04-03T07:14:50.707Z,3.11
2023-04-03T07:15:50.750Z,3.13
2023-04-03T07:16:50.724Z,3.24
2023-04-03T07:17:50.791Z,3.34
2023-04-03T07:18:50.744Z,3.40
2023-04-03T07:19:50.745Z,3.49
2023-04-03T07:20:50.954Z,3.49
2023-04-03T07:21:50.766Z,3.59
2023-04-03T07:22:50.776Z,3.70
2023-04-03T07:23:50.792Z,3.68
2023-04-03T07:24:50.799Z,3.84
2023-04-03T07:25:50.808Z,3.82
2023-04-03T07:26:50.814Z,3.96
2023-04-03T07:27:50.824Z,4.00
2023-04-03T07:28:50.861Z,4.09
2023-04-03T07:29:50.845Z,4.28
2023-04-03T07:30:50.852Z,4.36
2023-04-03T07:31:50.896Z,4.56
2023-04-03T07:32:50.904Z,4.74
2023-04-03T07:33:50.890Z,4.82
2023-04-03T07:34:50.897Z,4.89
2023-04-03T07:35:50.934Z,5.05
2023-04-03T07:36:50.918Z,5.20
2023-04-03T07:37:50.937Z,5.22
2023-04-03T07:38:50.937Z,5.22
2023-04-03T07:39:50.953Z,5.22
2023-04-03T07:40:50.958Z,5.26
2023-04-03T07:41:50.986Z,5.25
2023-04-03T07:42:50.982Z,5.18
2023-04-03T07:43:51.007Z,5.29
2023-04-03T07:44:51.009Z,5.28
2023-04-03T07:45:51.039Z,5.38
2023-04-03T07:46:51.029Z,5.33
2023-04-03T07:47:51.059Z,5.41
2023-04-03T07:48:51.055Z,5.54
2023-04-03T07:49:51.065Z,5.47
2023-04-03T07:50:51.088Z,5.47
2023-04-03T07:51:51.088Z,5.38
2023-04-03T07:52:51.097Z,5.47
2023-04-03T07:53:51.110Z,5.36
2023-04-03T07:54:51.124Z,5.28
2023-04-03T07:55:51.133Z,5.25
2023-04-03T07:56:51.201Z,5.25
2023-04-03T07:57:51.156Z,5.10
2023-04-03T07:58:51.169Z,4.97
2023-04-03T07:59:51.193Z,4.98
2023-04-03T08:00:51.193Z,4.89
2023-04-03T08:01:51.204Z,4.71
2023-04-03T08:02:51.343Z,4.61
2023-04-03T08:03:51.327Z,4.66
2023-04-03T08:04:51.357Z,4.56
2023-04-03T08:05:51.248Z,4.49
2023-04-03T08:06:51.266Z,4.45
2023-04-03T08:07:51.276Z,4.32
2023-04-03T08:08:51.285Z,4.43
2023-04-03T08:09:51.289Z,4.36
2023-04-03T08:10:51.303Z,4.32
2023-04-03T08:11:51.316Z,4.42
2023-04-03T08:12:51.321Z,4.45
2023-04-03T08:13:51.841Z,4.48
2023-04-03T08:14:51.344Z,4.61
2023-04-03T08:15:51.354Z,4.76
2023-04-03T08:16:51.419Z,4.76
2023-04-03T08:17:51.419Z,4.74
2023-04-03T08:18:51.404Z,4.76
2023-04-03T08:19:51.401Z,4.67
2023-04-03T08:20:51.412Z,4.74
2023-04-03T08:21:51.419Z,4.75
2023-04-03T08:22:51.436Z,4.83
2023-04-03T08:23:51.442Z,4.66
2023-04-03T08:24:58.703Z,4.60
2023-04-03T08:25:51.463Z,4.71
2023-04-03T08:26:51.476Z,4.67
2023-04-03T08:27:51.488Z,4.68
2023-04-03T08:28:51.493Z,4.58
2023-04-03T08:29:51.511Z,4.64
2023-04-03T08:30:51.530Z,4.58
2023-04-03T08:31:51.555Z,4.56
2023-04-03T08:32:51.582Z,4.49
2023-04-03T08:33:51.550Z,4.48
2023-04-03T08:34:51.561Z,4.43
2023-04-03T08:35:51.624Z,4.38
2023-04-03T08:36:51.583Z,4.42
2023-04-03T08:37:51.600Z,4.40
2023-04-03T08:38:51.611Z,4.32
2023-04-03T08:39:51.619Z,4.38
2023-04-03T08:40:51.629Z,4.39
2023-04-03T08:41:51.641Z,4.32
2023-04-03T08:42:51.651Z,4.38
2023-04-03T08:43:51.672Z,4.39
2023-04-03T08:44:51.676Z,4.45
2023-04-03T08:45:51.713Z,4.48
2023-04-03T08:46:51.696Z,4.63
2023-04-03T08:47:51.898Z,4.66
2023-04-03T08:48:51.731Z,4.61
2023-04-03T08:49:51.756Z,4.57
2023-04-03T08:50:53.079Z,4.68
2023-04-03T08:51:51.749Z,4.70
2023-04-03T08:52:51.760Z,4.74
2023-04-03T08:53:51.769Z,4.74
2023-04-03T08:54:51.780Z,4.90
2023-04-03T08:55:51.796Z,4.94
2023-04-03T08:56:51.815Z,4.90
2023-04-03T08:57:51.816Z,5.04
2023-04-03T08:58:51.830Z,5.02
2023-04-03T08:59:51.895Z,5.02
2023-04-03T09:00:51.853Z,5.00
2023-04-03T09:01:51.874Z,5.13
2023-04-03T09:02:51.919Z,5.12
2023-04-03T09:03:51.920Z,5.12
2023-04-03T09:04:51.900Z,5.10
2023-04-03T09:05:51.912Z,5.19
2023-04-03T09:06:51.920Z,5.19
2023-04-03T09:07:51.931Z,5.25
2023-04-03T09:08:51.941Z,5.31
2023-04-03T09:09:51.959Z,5.38
2023-04-03T09:10:51.971Z,5.31
2023-04-03T09:11:51.976Z,5.33
2023-04-03T09:12:51.987Z,5.26
2023-04-03T09:13:52.004Z,5.20
2023-04-03T09:14:52.018Z,5.22
2023-04-03T09:15:52.063Z,5.13
2023-04-03T09:16:52.037Z,5.12
2023-04-03T09:17:52.072Z,5.05
2023-04-03T09:18:52.057Z,5.00
2023-04-03T09:19:52.076Z,4.97
2023-04-03T09:20:52.080Z,5.10
2023-04-03T09:21:52.090Z,5.12
2023-04-03T09:22:52.947Z,5.10
2023-04-03T09:23:52.118Z,5.19
2023-04-03T09:24:52.126Z,5.25
2023-04-03T09:25:52.137Z,5.16
2023-04-03T09:26:52.177Z,5.20
2023-04-03T09:27:52.159Z,5.28
2023-04-03T09:28:52.172Z,5.31
2023-04-03T09:29:52.183Z,5.40
2023-04-03T09:30:52.194Z,5.37
2023-04-03T09:31:52.263Z,5.40
2023-04-03T09:32:52.268Z,5.43
2023-04-03T09:33:52.233Z,5.43
2023-04-03T09:34:52.239Z,5.37
2023-04-03T09:35:52.297Z,5.33
2023-04-03T09:36:52.268Z,5.31
2023-04-03T09:37:52.273Z,5.36
2023-04-03T09:38:52.292Z,5.37
2023-04-03T09:39:52.317Z,5.34
2023-04-03T09:40:52.471Z,5.33
2023-04-03T09:41:52.349Z,5.36
2023-04-03T09:42:59.088Z,5.44
2023-04-03T09:43:52.348Z,5.49
2023-04-03T09:44:52.358Z,5.52
2023-04-03T09:45:52.376Z,5.56
2023-04-03T09:46:52.434Z,5.54
2023-04-03T09:47:52.458Z,5.61
2023-04-03T09:48:57.832Z,5.74
2023-04-03T09:49:52.416Z,5.88
2023-04-03T09:50:52.443Z,5.90
2023-04-03T09:51:52.438Z,5.99
2023-04-03T09:52:52.452Z,6.05
2023-04-03T09:53:52.480Z,6.17
2023-04-03T09:54:52.477Z,6.15
2023-04-03T09:55:52.488Z,6.25
2023-04-03T09:56:52.579Z,6.15
2023-04-03T09:57:53.613Z,6.20
2023-04-03T09:58:52.526Z,6.19
2023-04-03T09:59:52.542Z,6.15
2023-04-03T10:00:52.566Z,6.22
2023-04-03T10:01:52.578Z,6.17
2023-04-03T10:02:52.645Z,6.07
2023-04-03T10:03:52.593Z,6.09
2023-04-03T10:05:02.541Z,6.07
2023-04-03T10:05:52.614Z,5.92
2023-04-03T10:06:52.627Z,5.92
2023-04-03T10:08:01.693Z,5.94
2023-04-03T10:08:52.659Z,5.88
2023-04-03T10:09:52.667Z,5.95
2023-04-03T10:10:52.680Z,5.91
2023-04-03T10:11:52.692Z,6.05
2023-04-03T10:12:52.708Z,6.06
2023-04-03T10:13:52.715Z,6.01
2023-04-03T10:14:52.727Z,6.17
2023-04-03T10:15:52.739Z,6.20
2023-04-03T10:16:52.830Z,6.29
2023-04-03T10:17:52.851Z,6.35
2023-04-03T10:18:52.774Z,6.47
2023-04-03T10:19:52.794Z,6.70
2023-04-03T10:20:52.800Z,6.70
2023-04-03T10:21:52.815Z,6.75
2023-04-03T10:22:52.825Z,6.85
2023-04-03T10:23:52.837Z,7.00
2023-04-03T10:24:52.852Z,7.10
2023-04-03T10:25:52.870Z,7.07
2023-04-03T10:26:52.879Z,7.22
2023-04-03T10:27:52.895Z,7.25
2023-04-03T10:28:52.911Z,7.26
2023-04-03T10:29:52.921Z,7.37
2023-04-03T10:30:52.951Z,7.55
2023-04-03T10:31:52.947Z,7.53
2023-04-03T10:32:52.999Z,7.62
2023-04-03T10:33:52.978Z,7.69
2023-04-03T10:35:04.631Z,7.74
2023-04-03T10:35:53.054Z,7.75
2023-04-03T10:36:53.017Z,7.67
2023-04-03T10:37:53.034Z,7.67
2023-04-03T10:38:53.048Z,7.75
2023-04-03T10:39:53.065Z,7.75
2023-04-03T10:40:53.077Z,7.80
2023-04-03T10:41:55.942Z,7.77
2023-04-03T10:42:53.105Z,7.80
2023-04-03T10:43:53.122Z,7.72
2023-04-03T10:44:53.135Z,7.78
2023-04-03T10:45:53.215Z,7.80
2023-04-03T10:46:53.169Z,7.85
2023-04-03T10:47:53.238Z,7.90
2023-04-03T10:48:53.200Z,7.93
2023-04-03T10:49:59.283Z,8.09
2023-04-03T10:50:53.229Z,8.20
2023-04-03T10:51:53.247Z,8.23
2023-04-03T10:52:53.267Z,8.36
2023-04-03T10:53:53.300Z,8.42
2023-04-03T10:54:53.299Z,8.50
2023-04-03T10:55:53.326Z,8.35
2023-04-03T10:57:04.431Z,8.44
2023-04-03T10:57:53.402Z,8.24
2023-04-03T10:58:53.371Z,8.23
2023-04-03T10:59:53.377Z,8.28
2023-04-03T11:00:53.395Z,8.27
2023-04-03T11:01:53.440Z,8.38
2023-04-03T11:02:53.636Z,8.35
2023-04-03T11:03:53.595Z,8.36
2023-04-03T11:04:53.486Z,8.54
2023-04-03T11:05:53.476Z,8.53
2023-04-03T11:06:53.488Z,8.45
2023-04-03T11:07:53.544Z,8.56
2023-04-03T11:08:53.519Z,8.52
2023-04-03T11:09:53.538Z,8.53
2023-04-03T11:10:53.551Z,8.52
2023-04-03T11:11:53.568Z,8.56
2023-04-03T11:12:53.585Z,8.63
2023-04-03T11:13:53.608Z,8.57
2023-04-03T11:14:53.616Z,8.60
2023-04-03T11:15:53.654Z,8.59
2023-04-03T11:16:54.640Z,8.71
2023-04-03T11:17:53.706Z,8.71
2023-04-03T11:18:53.686Z,8.68
2023-04-03T11:19:53.693Z,8.68
2023-04-03T11:20:53.711Z,8.78
2023-04-03T11:21:53.797Z,8.63
2023-04-03T11:22:53.746Z,8.71
2023-04-03T11:23:53.756Z,8.78
2023-04-03T11:24:53.784Z,8.75
2023-04-03T11:25:53.788Z,8.82
2023-04-03T11:26:53.800Z,8.79
2023-04-03T11:27:53.819Z,8.78
2023-04-03T11:28:53.888Z,8.72
2023-04-03T11:29:53.848Z,8.69
2023-04-03T11:30:55.012Z,8.49
2023-04-03T11:31:53.931Z,8.50
2023-04-03T11:32:53.935Z,8.52
2023-04-03T11:33:53.916Z,8.36
2023-04-03T11:34:53.926Z,8.32
2023-04-03T11:35:53.995Z,8.39
2023-04-03T11:36:53.974Z,8.38
2023-04-03T11:37:53.971Z,8.38
2023-04-03T11:38:54.731Z,8.50
2023-04-03T11:39:54.002Z,8.50
2023-04-03T11:40:54.020Z,8.44
2023-04-03T11:42:06.892Z,8.36
2023-04-03T11:42:54.050Z,8.38
2023-04-03T11:43:54.062Z,8.42
2023-04-03T11:44:54.076Z,8.35
2023-04-03T11:45:54.097Z,8.45
2023-04-03T11:46:56.973Z,8.38
2023-04-03T11:47:54.209Z,8.24
2023-04-03T11:48:54.153Z,8.27
2023-04-03T11:49:54.155Z,8.14
2023-04-03T11:50:54.191Z,8.09
2023-04-03T11:51:54.179Z,8.05
2023-04-03T11:52:54.192Z,7.96
2023-04-03T11:53:54.206Z,7.88
2023-04-03T11:54:54.236Z,7.83
2023-04-03T11:55:54.250Z,7.83
2023-04-03T11:56:54.271Z,7.67
2023-04-03T11:57:54.261Z,7.62
2023-04-03T11:58:54.275Z,7.74
2023-04-03T11:59:54.291Z,7.67
2023-04-03T12:00:54.341Z,7.50
2023-04-03T12:01:54.383Z,7.59
2023-04-03T12:02:55.051Z,7.55
2023-04-03T12:03:54.422Z,7.56
2023-04-03T12:04:54.355Z,7.55
2023-04-03T12:05:54.371Z,7.59
2023-04-03T12:06:54.392Z,7.59
2023-04-03T12:07:54.419Z,7.64
2023-04-03T12:08:54.409Z,7.66
2023-04-03T12:09:54.424Z,7.69
2023-04-03T12:10:55.087Z,7.69
2023-04-03T12:11:54.448Z,7.62
2023-04-03T12:12:54.471Z,7.66
2023-04-03T12:13:54.478Z,7.64
2023-04-03T12:14:54.491Z,7.64
2023-04-03T12:15:54.508Z,7.62
2023-04-03T12:16:54.550Z,7.58
2023-04-03T12:17:54.617Z,7.56
2023-04-03T12:18:54.553Z,7.56
2023-04-03T12:19:54.560Z,7.53
2023-04-03T12:20:54.571Z,7.50
2023-04-03T12:21:54.591Z,7.50
2023-04-03T12:22:54.601Z,7.56
2023-04-03T12:23:54.612Z,7.51
2023-04-03T12:24:54.627Z,7.47
2023-04-03T12:25:54.640Z,7.40
2023-04-03T12:26:54.649Z,7.29
2023-04-03T12:27:54.665Z,7.28
2023-04-03T12:28:54.704Z,7.28
2023-04-03T12:29:54.715Z,7.15
2023-04-03T12:30:54.759Z,7.11
2023-04-03T12:31:54.724Z,7.26
2023-04-03T12:33:05.722Z,7.22
2023-04-03T12:33:54.747Z,7.10
2023-04-03T12:34:54.760Z,7.07
2023-04-03T12:35:54.802Z,7.10
2023-04-03T12:36:54.787Z,7.11
2023-04-03T12:37:54.800Z,7.05
2023-04-03T12:38:54.812Z,7.07
2023-04-03T12:39:54.838Z,7.04
2023-04-03T12:40:54.843Z,7.11
2023-04-03T12:41:54.852Z,7.08
2023-04-03T12:42:54.869Z,7.13
2023-04-03T12:43:54.879Z,7.15
2023-04-03T12:44:54.894Z,7.13
2023-04-03T12:45:54.977Z,7.10
2023-04-03T12:46:54.968Z,7.11
2023-04-03T12:47:55.026Z,7.07
2023-04-03T12:48:54.944Z,7.13
2023-04-03T12:49:54.990Z,7.01
2023-04-03T12:50:54.969Z,7.03
2023-04-03T12:51:54.985Z,6.92
2023-04-03T12:52:54.996Z,6.85
2023-04-03T12:53:55.008Z,6.90
2023-04-03T12:54:55.020Z,6.96
2023-04-03T12:55:55.046Z,6.93
2023-04-03T12:56:55.055Z,6.93
2023-04-03T12:57:55.068Z,6.96
2023-04-03T12:58:55.074Z,7.01
2023-04-03T12:59:55.082Z,6.95
2023-04-03T13:00:55.099Z,7.05
2023-04-03T13:01:55.139Z,7.13
2023-04-03T13:02:55.211Z,7.10
2023-04-03T13:03:55.195Z,7.08
2023-04-03T13:04:55.157Z,7.07
2023-04-03T13:05:55.161Z,7.19
2023-04-03T13:06:55.174Z,7.22
2023-04-03T13:07:55.188Z,7.29
2023-04-03T13:08:55.210Z,7.25
2023-04-03T13:09:55.215Z,7.33
2023-04-03T13:10:55.230Z,7.39
2023-04-03T13:11:55.241Z,7.41